CheckWX is a tool to help pilots better visualize weather data.  It is not intended as a substitute for an official pre-flight weather briefing.

10:35:44 UTC

K1YT METAR
Yagabond Aaf
Yagabond Aaf, Washington, USA
Current

38 mins ago

K1YT 260958Z AUTO 15003KT 10SM FEW120 SCT140 04/01 A2996 RMK AO2 SLPNO T00350012 $
Observed
Mar-26 @ 09:58 UTC
Wind
  • 150° at 3 KTS
Visibility
10 SM
Flight Rules
VFR
Cloud Levels
  • Few at 12,000' AGL
  • Scattered at 14,000' AGL
Temperature
C / 39°F
Dewpoint
C / 34°F
Humidity
81%
Altimeter
29.96" Hg
Pressure
1014.52 hPa
Previous

2 hours ago

K1YT 260858Z AUTO 00000KT 10SM BKN110 05/02 A2995 RMK AO2 SLPNO T00480020 52017 $
Observed
Mar-26 @ 08:58 UTC
Visibility
10 SM
Flight Rules
VFR
Cloud Levels
  • Broken at 11,000' AGL
Temperature
C / 41°F
Dewpoint
C / 36°F
Humidity
81%
Altimeter
29.95" Hg
Pressure
1014.22 hPa
Previous

3 hours ago

K1YT 260758Z AUTO 00000KT 10SM BKN100 06/03 A2994 RMK AO2 SLPNO T00550025 401220012 $
Observed
Mar-26 @ 07:58 UTC
Visibility
10 SM
Flight Rules
VFR
Cloud Levels
  • Broken at 10,000' AGL
Temperature
C / 43°F
Dewpoint
C / 37°F
Humidity
81%
Altimeter
29.94" Hg
Pressure
1013.92 hPa